Time;durP1;ratioP1;P1;durP2;ratioP2;P2;SDS_P1;SDS_P2;PMS_P1;PMS_P2;Temp;Humidity;BMP_temperature;BMP_pressure;BME280_temperature;BME280_humidity;BME280_pressure;Samples;Min_cycle;Max_cycle;Signal;HPM_P1;HPM_P2
2021/12/05 00:24:50;;;;;;;39.97;16.40;;;4.30;99.90;;;;;;5071240;28;20057;-82
2021/12/05 00:27:18;;;;;;;36.00;15.23;;;4.40;99.90;;;;;;5071161;28;20060;-84
2021/12/05 00:32:47;;;;;;;37.53;15.43;;;4.30;99.90;;;;;;5056482;28;20135;-82
2021/12/05 00:35:53;;;;;;;36.78;14.27;;;5.90;99.90;;;;;;5092014;28;20055;-81
2021/12/05 00:57:17;;;;;;;;;;;5.10;99.90;;;;;;5076521;28;20373;-81
2021/12/05 01:10:13;;;;;;;38.47;17.15;;;4.00;99.90;;;;;;5091446;28;20505;-82
2021/12/05 01:15:11;;;;;;;35.92;16.75;;;4.70;99.90;;;;;;5089399;28;20055;-82
2021/12/05 01:17:59;;;;;;;37.15;17.98;;;3.90;99.90;;;;;;5089690;28;20055;-83
2021/12/05 01:20:25;;;;;;;35.15;16.02;;;3.90;99.90;;;;;;5059106;28;20052;-82
2021/12/05 01:23:01;;;;;;;34.53;18.33;;;3.90;99.90;;;;;;5073019;28;20515;-83
2021/12/05 01:25:46;;;;;;;33.33;15.77;;;5.10;99.90;;;;;;5075187;28;20505;-82
2021/12/05 01:30:53;;;;;;;32.40;16.90;;;3.90;99.90;;;;;;5089161;28;20047;-82
2021/12/05 01:39:07;;;;;;;36.47;17.73;;;4.10;99.90;;;;;;5089568;28;20134;-82
2021/12/05 01:41:19;;;;;;;41.65;18.63;;;5.40;99.90;;;;;;5082720;28;20102;-81
2021/12/05 01:44:35;;;;;;;42.03;18.05;;;2.90;99.90;;;;;;5089424;28;20055;-81
2021/12/05 01:55:36;;;;;;;33.17;16.05;;;3.90;99.90;;;;;;5061327;28;20370;-82
2021/12/05 01:58:09;;;;;;;33.33;16.67;;;3.90;99.90;;;;;;5086544;28;20056;-82
2021/12/05 02:43:12;;;;;;;39.25;16.85;;;4.00;99.90;;;;;;5072961;28;20105;-82
2021/12/05 02:45:44;;;;;;;39.88;17.02;;;5.20;99.90;;;;;;5057124;28;20060;-82
2021/12/05 02:48:10;;;;;;;34.33;15.80;;;4.20;99.90;;;;;;5089456;28;20079;-82
2021/12/05 02:50:36;;;;;;;41.65;17.20;;;4.10;99.90;;;;;;5091857;28;20040;-82
2021/12/05 02:53:12;;;;;;;35.28;17.48;;;4.10;99.90;;;;;;5092972;28;20055;-82
2021/12/05 02:55:42;;;;;;;31.63;16.73;;;4.50;99.90;;;;;;5061756;28;20048;-81
2021/12/05 02:58:29;;;;;;;32.67;17.10;;;4.10;99.90;;;;;;5092767;28;20090;-82
2021/12/05 03:01:14;;;;;;;41.45;19.98;;;4.10;99.90;;;;;;5065005;28;20105;-81
2021/12/05 03:03:40;;;;;;;42.47;19.30;;;5.50;99.90;;;;;;5093537;28;20050;-82
2021/12/05 03:06:23;;;;;;;43.53;20.17;;;4.10;99.90;;;;;;5093370;28;20067;-81
2021/12/05 03:08:53;;;;;;;41.33;19.85;;;4.10;99.90;;;;;;5092421;28;20090;-81
2021/12/05 03:11:19;;;;;;;45.83;19.77;;;4.10;99.90;;;;;;5091554;28;20063;-80
2021/12/05 03:13:45;;;;;;;45.95;20.05;;;4.50;99.90;;;;;;5075344;28;20063;-81
2021/12/05 03:16:12;;;;;;;50.50;22.27;;;4.10;99.90;;;;;;5075630;28;20058;-82
2021/12/05 03:18:38;;;;;;;42.70;22.23;;;4.20;99.90;;;;;;5058595;28;20075;-82
2021/12/05 03:21:04;;;;;;;46.30;22.17;;;4.10;99.90;;;;;;5075645;28;20052;-81
2021/12/05 03:23:30;;;;;;;47.10;21.80;;;4.20;99.90;;;;;;5092415;28;20056;-81
2021/12/05 03:25:56;;;;;;;50.22;24.67;;;5.20;99.90;;;;;;5091852;28;20127;-81
2021/12/05 03:28:23;;;;;;;51.00;24.52;;;4.60;99.90;;;;;;5074644;28;20193;-81
2021/12/05 03:30:48;;;;;;;51.25;22.30;;;4.10;99.90;;;;;;5091656;28;20120;-81
2021/12/05 03:33:14;;;;;;;50.90;22.98;;;5.70;99.90;;;;;;5092530;28;20544;-82
2021/12/05 03:35:40;;;;;;;48.28;24.05;;;4.30;99.90;;;;;;5091615;28;20058;-83
2021/12/05 03:38:06;;;;;;;48.28;24.58;;;5.40;99.90;;;;;;5093381;28;20063;-82
2021/12/05 03:40:32;;;;;;;53.67;25.33;;;4.50;99.90;;;;;;5092135;28;20082;-82
2021/12/05 03:43:04;;;;;;;48.88;25.00;;;4.10;99.90;;;;;;5091431;28;20074;-81
2021/12/05 03:45:43;;;;;;;49.45;25.52;;;4.10;99.90;;;;;;5091536;28;20044;-84
2021/12/05 03:48:09;;;;;;;43.13;24.25;;;4.10;99.90;;;;;;5091845;28;20075;-82
2021/12/05 03:50:36;;;;;;;53.50;25.17;;;4.10;99.90;;;;;;5093152;28;20056;-82
2021/12/05 03:53:02;;;;;;;54.15;27.33;;;4.10;99.90;;;;;;5091321;28;20079;-83
2021/12/05 03:55:28;;;;;;;64.15;27.35;;;4.00;99.90;;;;;;5091714;28;20060;-82
2021/12/05 03:57:53;;;;;;;51.55;25.83;;;4.00;99.90;;;;;;5092334;28;20050;-82
2021/12/05 04:00:26;;;;;;;60.47;26.95;;;5.30;99.90;;;;;;5092753;28;20048;-82
2021/12/05 04:02:54;;;;;;;49.28;23.77;;;4.00;99.90;;;;;;5089939;28;20048;-81
2021/12/05 04:05:20;;;;;;;44.72;23.67;;;4.00;99.90;;;;;;5075352;28;20048;-81
2021/12/05 04:07:47;;;;;;;50.63;24.60;;;3.90;99.90;;;;;;5092299;28;20054;-81
2021/12/05 04:10:17;;;;;;;44.55;25.08;;;3.90;99.90;;;;;;5075659;28;20131;-82
2021/12/05 04:12:43;;;;;;;54.00;25.17;;;4.00;99.90;;;;;;5090658;28;20113;-83
2021/12/05 04:15:10;;;;;;;49.58;23.50;;;4.00;99.90;;;;;;5088037;28;20066;-82
2021/12/05 04:17:38;;;;;;;49.15;25.42;;;4.00;99.90;;;;;;5091313;28;20048;-82
2021/12/05 04:20:04;;;;;;;55.45;24.35;;;4.00;99.90;;;;;;5092190;28;20115;-82
2021/12/05 04:22:30;;;;;;;54.33;24.52;;;3.90;99.90;;;;;;5074410;28;20076;-82
2021/12/05 04:24:56;;;;;;;45.20;23.55;;;5.20;99.90;;;;;;5090226;28;20476;-82
2021/12/05 04:27:22;;;;;;;55.83;23.80;;;5.40;99.90;;;;;;5092405;28;20047;-82
2021/12/05 04:29:48;;;;;;;44.33;21.90;;;3.90;99.90;;;;;;5073761;28;20423;-83
2021/12/05 04:32:13;;;;;;;50.65;23.00;;;4.80;99.90;;;;;;5090804;28;20060;-82
2021/12/05 04:34:39;;;;;;;41.03;20.52;;;3.90;99.90;;;;;;5073891;28;20452;-82
2021/12/05 04:37:05;;;;;;;44.67;23.25;;;5.00;99.90;;;;;;5091734;28;20228;-82
2021/12/05 04:39:31;;;;;;;44.67;22.17;;;5.60;99.90;;;;;;5074201;28;20089;-82
2021/12/05 04:42:03;;;;;;;36.97;20.10;;;3.90;99.90;;;;;;5091662;28;20162;-81
2021/12/05 04:44:29;;;;;;;50.95;22.58;;;3.60;99.90;;;;;;5074087;28;20113;-82
2021/12/05 04:46:55;;;;;;;40.72;21.02;;;5.30;99.90;;;;;;5091465;28;20051;-82
2021/12/05 04:49:21;;;;;;;50.67;21.42;;;5.00;99.90;;;;;;5074290;28;20044;-80
2021/12/05 04:51:47;;;;;;;49.72;21.35;;;5.50;99.90;;;;;;5091773;28;20100;-85
2021/12/05 04:54:15;;;;;;;42.55;20.10;;;5.30;99.90;;;;;;5090388;28;20072;-82
2021/12/05 04:56:41;;;;;;;50.13;21.02;;;3.80;99.90;;;;;;5090440;28;20040;-82
2021/12/05 04:59:12;;;;;;;43.75;20.48;;;3.80;99.90;;;;;;5056715;28;20085;-81
2021/12/05 05:01:39;;;;;;;38.05;18.92;;;3.80;99.90;;;;;;5091802;28;20047;-82
2021/12/05 05:04:12;;;;;;;40.58;19.02;;;3.70;99.90;;;;;;5091162;28;20091;-82
2021/12/05 05:06:38;;;;;;;39.38;19.02;;;5.10;99.90;;;;;;5042731;28;20051;-81
2021/12/05 05:09:17;;;;;;;36.60;17.05;;;4.30;99.90;;;;;;5075489;28;20498;-82
2021/12/05 05:11:43;;;;;;;46.15;18.90;;;3.80;99.90;;;;;;5090413;28;20040;-81
2021/12/05 05:14:09;;;;;;;36.78;18.15;;;3.90;99.90;;;;;;5106382;28;20385;-81
2021/12/05 05:16:35;;;;;;;44.42;18.05;;;3.80;99.90;;;;;;5073811;28;20135;-82
2021/12/05 05:19:01;;;;;;;39.20;16.02;;;5.10;99.90;;;;;;5089749;28;20131;-82
2021/12/05 05:21:40;;;;;;;38.60;15.85;;;3.70;99.90;;;;;;5090394;28;20079;-83
2021/12/05 05:24:25;;;;;;;37.25;15.18;;;3.70;99.90;;;;;;5089572;28;20056;-82
2021/12/05 05:50:51;;;;;;;34.05;13.45;;;3.40;99.90;;;;;;5090636;28;20160;-82
2021/12/05 05:53:17;;;;;;;29.75;14.05;;;3.40;99.90;;;;;;5089257;28;20495;-81
2021/12/05 05:55:43;;;;;;;33.33;13.52;;;4.10;99.90;;;;;;5091097;28;20051;-81
2021/12/05 05:58:15;;;;;;;32.67;14.55;;;3.40;99.90;;;;;;5089138;28;20036;-82
2021/12/05 06:00:53;;;;;;;30.00;13.15;;;3.30;99.90;;;;;;5090931;28;20048;-82
2021/12/05 06:03:21;;;;;;;25.88;13.32;;;4.30;99.90;;;;;;5089408;28;20052;-82
2021/12/05 06:05:49;;;;;;;29.50;13.90;;;3.80;99.90;;;;;;5089663;28;20052;-81
2021/12/05 06:08:14;;;;;;;29.98;12.07;;;3.30;99.90;;;;;;5056053;28;20052;-82
2021/12/05 06:10:41;;;;;;;30.67;13.90;;;3.30;99.90;;;;;;5089658;28;20044;-82
2021/12/05 06:13:07;;;;;;;35.03;13.60;;;3.20;99.90;;;;;;5072463;28;20408;-82
2021/12/05 06:15:32;;;;;;;39.53;14.52;;;4.10;99.90;;;;;;5090904;28;20040;-83
2021/12/05 06:17:58;;;;;;;30.42;13.63;;;3.30;99.90;;;;;;5088951;28;20072;-84
2021/12/05 06:20:26;;;;;;;38.50;13.00;;;4.00;99.90;;;;;;5089081;28;20036;-83
2021/12/05 06:22:53;;;;;;;30.58;12.55;;;3.30;99.90;;;;;;5072765;28;20476;-82
2021/12/05 06:25:22;;;;;;;28.33;13.27;;;3.30;99.90;;;;;;5091783;28;20114;-82
2021/12/05 06:27:49;;;;;;;35.92;13.23;;;3.20;99.90;;;;;;5093537;28;20040;-82
2021/12/05 06:30:21;;;;;;;34.97;13.65;;;3.20;99.90;;;;;;5076296;28;20056;-82
2021/12/05 06:38:42;;;;;;;27.85;12.35;;;3.20;99.90;;;;;;5093128;28;20048;-81
2021/12/05 06:46:31;;;;;;;28.75;12.85;;;3.20;99.90;;;;;;5073743;28;20056;-83
2021/12/05 06:48:57;;;;;;;33.10;13.15;;;3.30;99.90;;;;;;5094589;28;20044;-82
2021/12/05 06:51:24;;;;;;;34.42;12.48;;;4.30;99.90;;;;;;5092451;28;20125;-83
2021/12/05 06:53:50;;;;;;;25.83;12.52;;;4.10;99.90;;;;;;5059920;28;20079;-81
2021/12/05 06:56:16;;;;;;;36.55;12.82;;;3.30;99.90;;;;;;5093808;28;20121;-82
2021/12/05 06:58:42;;;;;;;28.95;12.75;;;3.20;99.90;;;;;;5092884;28;20106;-82
2021/12/05 07:01:08;;;;;;;36.15;13.52;;;3.60;99.90;;;;;;5093598;28;20491;-82
2021/12/05 07:03:37;;;;;;;34.80;12.82;;;4.70;99.90;;;;;;5094086;28;20079;-82
2021/12/05 07:08:35;;;;;;;31.67;11.95;;;4.60;99.90;;;;;;5093749;28;20143;-82
2021/12/05 07:11:08;;;;;;;36.15;14.10;;;3.30;99.90;;;;;;5093102;28;20062;-82
2021/12/05 07:18:49;;;;;;;27.33;13.13;;;3.30;99.90;;;;;;5062079;28;20044;-82
2021/12/05 07:40:27;;;;;;;42.28;15.98;;;3.40;99.90;;;;;;5092260;28;20060;-82
2021/12/05 07:42:58;;;;;;;39.38;17.15;;;3.40;99.90;;;;;;5064602;28;20472;-81
2021/12/05 07:45:35;;;;;;;36.45;15.73;;;3.40;99.90;;;;;;5092740;28;20044;-82
2021/12/05 07:48:10;;;;;;;36.88;15.80;;;3.40;99.90;;;;;;5092199;28;20130;-82
2021/12/05 07:50:53;;;;;;;40.88;15.15;;;3.80;99.90;;;;;;5091765;28;20722;-83
2021/12/05 07:53:27;;;;;;;36.95;15.15;;;3.40;99.90;;;;;;5091066;28;20048;-80
2021/12/05 07:56:00;;;;;;;35.67;15.98;;;3.40;99.90;;;;;;5108725;28;20067;-82
2021/12/05 08:15:14;;;;;;;36.15;15.68;;;4.90;99.90;;;;;;5091523;28;20408;-82
2021/12/05 08:17:40;;;;;;;33.08;15.52;;;3.50;99.90;;;;;;5059594;28;20051;-82
2021/12/05 08:20:07;;;;;;;31.85;15.30;;;3.70;99.90;;;;;;5057638;28;20056;-83
2021/12/05 08:22:32;;;;;;;38.33;17.50;;;3.60;99.90;;;;;;5090624;28;20052;-82
2021/12/05 08:25:07;;;;;;;41.70;16.60;;;3.60;99.90;;;;;;5091102;28;20451;-81
2021/12/05 08:27:33;;;;;;;34.47;16.15;;;3.70;99.90;;;;;;5073792;28;20312;-82
2021/12/05 08:30:07;;;;;;;37.97;15.95;;;3.70;99.90;;;;;;5092250;28;20044;-81
2021/12/05 08:33:27;;;;;;;36.67;15.35;;;3.70;99.90;;;;;;5090653;28;20071;-82
2021/12/05 08:39:21;;;;;;;30.75;14.85;;;3.80;99.90;;;;;;5076678;28;20055;-82
2021/12/05 08:44:32;;;;;;;35.10;15.93;;;3.80;99.90;;;;;;5076778;28;20056;-82
2021/12/05 09:28:31;;;;;;;37.85;16.42;;;4.00;99.90;;;;;;5074024;28;20124;-83
2021/12/05 09:31:06;;;;;;;35.97;17.17;;;4.60;99.90;;;;;;5089787;28;20071;-83
2021/12/05 10:06:55;;;;;;;28.45;16.30;;;4.30;99.90;;;;;;5063202;28;20078;-82
2021/12/05 10:36:05;;;;;;;22.77;12.55;;;4.50;99.90;;;;;;5088538;28;20183;-81
2021/12/05 10:38:45;;;;;;;24.05;12.13;;;6.20;99.90;;;;;;5073334;28;20063;-81
2021/12/05 10:44:06;;;;;;;24.52;12.23;;;4.50;99.90;;;;;;5074279;28;20408;-81
2021/12/05 10:46:32;;;;;;;23.35;12.25;;;4.50;99.90;;;;;;5089921;28;20117;-84
2021/12/05 10:49:09;;;;;;;28.13;12.55;;;4.50;99.90;;;;;;5072585;28;20040;-84
2021/12/05 10:51:38;;;;;;;33.25;18.27;;;4.50;99.90;;;;;;5072441;28;20059;-81
2021/12/05 10:54:04;;;;;;;29.50;14.63;;;4.50;99.90;;;;;;5089063;28;20048;-84
2021/12/05 10:56:38;;;;;;;31.20;13.50;;;4.50;99.90;;;;;;5088684;28;20048;-84
2021/12/05 10:59:16;;;;;;;25.60;13.50;;;4.50;99.90;;;;;;5089533;28;20056;-85
2021/12/05 11:01:43;;;;;;;27.30;13.88;;;4.50;99.90;;;;;;5088255;28;20047;-84
2021/12/05 11:04:28;;;;;;;22.95;12.43;;;4.50;99.90;;;;;;5088771;28;20510;-84
2021/12/05 11:07:10;;;;;;;22.13;13.13;;;4.50;99.90;;;;;;5050543;28;20609;-84
2021/12/05 11:09:38;;;;;;;25.92;13.70;;;4.50;99.90;;;;;;5087896;28;20059;-85
2021/12/05 11:12:08;;;;;;;27.33;13.00;;;4.60;99.90;;;;;;5073628;28;20041;-84
2021/12/05 11:14:37;;;;;;;26.52;12.77;;;4.60;99.90;;;;;;5072022;28;20642;-82
2021/12/05 11:17:11;;;;;;;23.08;13.18;;;4.50;99.90;;;;;;5071928;28;20083;-82
2021/12/05 11:19:47;;;;;;;22.23;11.90;;;4.50;99.90;;;;;;5071821;28;20709;-83
2021/12/05 11:22:16;;;;;;;23.38;12.88;;;4.60;99.90;;;;;;5040470;28;20057;-81
2021/12/05 11:24:48;;;;;;;22.85;12.52;;;4.50;99.90;;;;;;5054795;28;20453;-82
2021/12/05 11:27:26;;;;;;;23.15;11.93;;;4.60;99.90;;;;;;5088527;28;20044;-81
2021/12/05 11:29:54;;;;;;;24.65;12.02;;;4.60;99.90;;;;;;5071505;28;20059;-81
2021/12/05 11:32:31;;;;;;;25.40;12.00;;;4.70;99.90;;;;;;5071955;28;20052;-81
2021/12/05 11:34:57;;;;;;;22.08;11.57;;;4.70;99.90;;;;;;5039485;28;20099;-82
2021/12/05 11:37:23;;;;;;;20.05;12.05;;;5.30;99.90;;;;;;5071570;28;20072;-81
2021/12/05 11:39:50;;;;;;;20.30;10.27;;;4.60;99.90;;;;;;5054427;28;20044;-81
2021/12/05 11:42:19;;;;;;;21.55;11.10;;;4.90;99.90;;;;;;5071914;28;20540;-82
2021/12/05 11:44:46;;;;;;;21.30;11.30;;;5.00;99.90;;;;;;5072344;28;20044;-82
2021/12/05 11:47:14;;;;;;;25.15;11.38;;;4.70;99.90;;;;;;5055071;28;20087;-83
2021/12/05 11:49:39;;;;;;;21.38;11.85;;;4.60;99.90;;;;;;5022001;28;20067;-84
2021/12/05 11:52:05;;;;;;;21.85;11.57;;;4.70;99.90;;;;;;5054182;28;20048;-84
2021/12/05 11:54:36;;;;;;;26.92;12.23;;;4.60;99.90;;;;;;5071248;28;20052;-82
2021/12/05 11:57:11;;;;;;;20.30;11.68;;;4.60;99.90;;;;;;5071125;28;20123;-83
2021/12/05 11:59:43;;;;;;;;;;;4.60;99.90;;;;;;5039999;28;20102;-84
2021/12/05 12:02:16;;;;;;;22.05;12.20;;;4.60;99.90;;;;;;5054748;28;19924;-83
2021/12/05 12:04:44;;;;;;;28.70;12.48;;;5.10;99.90;;;;;;5054489;28;20044;-83
2021/12/05 12:07:10;;;;;;;22.02;11.77;;;4.60;99.90;;;;;;5071508;28;20537;-82
2021/12/05 12:09:36;;;;;;;20.67;12.50;;;4.70;99.90;;;;;;5071584;28;20150;-81
2021/12/05 12:12:02;;;;;;;21.00;12.93;;;4.70;99.90;;;;;;5070800;28;20056;-81
2021/12/05 12:14:28;;;;;;;21.95;11.80;;;4.70;99.90;;;;;;5071534;28;20139;-81
2021/12/05 12:16:54;;;;;;;23.55;12.10;;;4.70;99.90;;;;;;5072194;28;20059;-82
2021/12/05 12:19:22;;;;;;;22.52;12.85;;;4.70;99.90;;;;;;5054736;28;20049;-82
2021/12/05 12:21:51;;;;;;;29.15;11.82;;;4.80;99.90;;;;;;5070175;28;20060;-82
2021/12/05 12:24:17;;;;;;;22.95;12.90;;;4.70;99.90;;;;;;5070209;28;20492;-80
2021/12/05 12:26:43;;;;;;;25.33;13.48;;;4.70;99.90;;;;;;5054512;28;20080;-81
2021/12/05 12:29:11;;;;;;;22.20;11.95;;;4.80;99.90;;;;;;5053782;28;20052;-80
2021/12/05 12:31:38;;;;;;;26.42;13.27;;;4.80;99.90;;;;;;5070445;28;20544;-83
2021/12/05 12:34:10;;;;;;;26.25;13.15;;;5.70;99.90;;;;;;5053229;28;20061;-84
2021/12/05 12:36:43;;;;;;;24.95;13.68;;;4.90;99.90;;;;;;5054439;28;20119;-83
2021/12/05 12:39:21;;;;;;;23.30;12.85;;;5.90;99.90;;;;;;5053213;28;20060;-81
2021/12/05 12:42:28;;;;;;;25.77;12.68;;;5.00;99.90;;;;;;5071366;28;20546;-83
2021/12/05 12:45:15;;;;;;;19.75;11.77;;;5.00;99.90;;;;;;4969576;28;20061;-82
2021/12/05 12:47:54;;;;;;;21.52;12.20;;;5.00;99.90;;;;;;4971601;28;20532;-82
2021/12/05 12:50:33;;;;;;;22.40;12.35;;;5.10;99.90;;;;;;5039911;28;20053;-81
2021/12/05 12:53:15;;;;;;;19.98;10.70;;;5.40;99.90;;;;;;5068800;28;20102;-82
2021/12/05 12:56:05;;;;;;;24.02;11.55;;;5.10;99.90;;;;;;5068440;28;20114;-82
2021/12/05 12:58:56;;;;;;;19.63;11.15;;;5.10;99.90;;;;;;5068049;28;20079;-82
2021/12/05 13:10:06;;;;;;;18.98;11.00;;;5.20;99.90;;;;;;5053585;28;20108;-83
2021/12/05 13:12:32;;;;;;;23.20;10.80;;;5.10;99.90;;;;;;5068186;28;20216;-83
2021/12/05 13:15:24;;;;;;;22.65;11.50;;;5.10;99.90;;;;;;5083705;28;20496;-84
2021/12/05 13:18:09;;;;;;;18.42;10.52;;;5.10;99.90;;;;;;5055908;28;20099;-84
2021/12/05 13:20:41;;;;;;;18.95;12.18;;;5.10;99.90;;;;;;5068069;28;20060;-81
2021/12/05 13:23:31;;;;;;;21.00;11.55;;;5.20;99.90;;;;;;5066731;28;20118;-82
2021/12/05 13:26:23;;;;;;;20.08;11.40;;;5.10;99.90;;;;;;5050524;28;20515;-81
2021/12/05 13:29:14;;;;;;;21.52;11.27;;;5.10;99.90;;;;;;5068778;28;20040;-81
2021/12/05 13:31:59;;;;;;;20.50;10.95;;;5.10;99.90;;;;;;5039477;28;20546;-81
2021/12/05 13:34:34;;;;;;;21.55;10.93;;;5.10;99.90;;;;;;5067029;28;20721;-82
2021/12/05 13:37:06;;;;;;;19.58;11.80;;;5.10;99.90;;;;;;5066508;28;20587;-84
2021/12/05 13:39:43;;;;;;;20.80;11.40;;;5.10;99.90;;;;;;5067629;28;20056;-82
2021/12/05 13:42:26;;;;;;;23.40;11.85;;;5.10;99.90;;;;;;5068181;28;20121;-82
2021/12/05 13:45:01;;;;;;;25.40;12.10;;;5.10;99.90;;;;;;5069049;28;20052;-82
2021/12/05 13:47:31;;;;;;;20.13;11.43;;;5.10;99.90;;;;;;5067796;28;20053;-82
2021/12/05 13:49:58;;;;;;;19.83;11.90;;;5.20;99.90;;;;;;5034472;28;20076;-83
2021/12/05 13:52:36;;;;;;;23.75;12.75;;;5.10;99.90;;;;;;5068721;28;20045;-82
2021/12/05 13:55:31;;;;;;;24.83;12.15;;;5.20;99.90;;;;;;5066816;28;20087;-83
2021/12/05 13:58:13;;;;;;;;;;;5.10;99.90;;;;;;5050484;28;20103;-84
2021/12/05 14:01:18;;;;;;;20.48;12.43;;;5.10;99.90;;;;;;5068481;28;19938;-83
2021/12/05 14:03:53;;;;;;;22.77;13.95;;;5.10;99.90;;;;;;5029911;28;20092;-83
2021/12/05 14:06:32;;;;;;;20.85;12.60;;;5.10;99.90;;;;;;5068198;28;20416;-83
2021/12/05 14:09:12;;;;;;;19.35;11.00;;;5.10;99.90;;;;;;5067055;28;20152;-83
2021/12/05 14:11:46;;;;;;;16.60;9.68;;;5.10;99.90;;;;;;5051268;28;20049;-83
2021/12/05 14:14:12;;;;;;;15.60;12.00;;;5.10;99.90;;;;;;5050500;28;20110;-83
2021/12/05 14:16:39;;;;;;;19.52;12.68;;;5.00;99.90;;;;;;5067950;28;20053;-82
2021/12/05 14:19:07;;;;;;;19.92;12.95;;;5.10;99.90;;;;;;5066710;28;20247;-82
2021/12/05 14:21:32;;;;;;;21.23;12.73;;;5.10;99.90;;;;;;5034124;28;20053;-83
2021/12/05 14:24:00;;;;;;;21.42;13.77;;;5.10;99.90;;;;;;5066794;28;20373;-83
2021/12/05 14:26:27;;;;;;;20.95;14.43;;;5.60;99.90;;;;;;5066946;28;20441;-82
2021/12/05 14:29:04;;;;;;;19.63;13.18;;;5.20;99.90;;;;;;5050330;28;20087;-82
2021/12/05 14:32:10;;;;;;;22.42;12.65;;;5.10;99.90;;;;;;5050419;28;20554;-82
2021/12/05 14:34:36;;;;;;;18.80;11.65;;;5.10;99.90;;;;;;4985731;28;20066;-82
2021/12/05 14:37:10;;;;;;;20.38;12.68;;;5.60;99.90;;;;;;5048842;28;20178;-83
2021/12/05 14:39:41;;;;;;;23.90;12.30;;;5.20;99.90;;;;;;5034983;28;20481;-83
2021/12/05 14:42:24;;;;;;;24.63;14.00;;;5.10;99.90;;;;;;5067169;28;20109;-82
2021/12/05 14:44:53;;;;;;;23.25;13.20;;;5.10;99.90;;;;;;5066763;28;20048;-82
2021/12/05 14:47:20;;;;;;;23.38;13.45;;;5.90;99.90;;;;;;5070641;28;20052;-82
2021/12/05 14:49:54;;;;;;;22.60;13.30;;;5.20;99.90;;;;;;5054051;28;20108;-82
2021/12/05 14:52:25;;;;;;;23.67;15.40;;;5.20;99.90;;;;;;5053890;28;20893;-82
2021/12/05 14:54:51;;;;;;;24.52;15.80;;;5.10;99.90;;;;;;5071290;28;20045;-82
2021/12/05 14:57:19;;;;;;;29.10;14.93;;;5.10;99.90;;;;;;5036802;28;20443;-82
2021/12/05 14:59:46;;;;;;;23.70;15.20;;;5.90;99.90;;;;;;5070209;28;20059;-82
2021/12/05 15:02:12;;;;;;;25.55;15.32;;;5.90;99.90;;;;;;5070902;28;20098;-82
2021/12/05 15:04:46;;;;;;;27.50;14.98;;;5.30;99.90;;;;;;5070225;28;20382;-82
2021/12/05 15:07:12;;;;;;;;;;;5.30;99.90;;;;;;5071154;28;20115;-81
2021/12/05 15:09:40;;;;;;;25.63;15.07;;;5.20;99.90;;;;;;5070494;28;20709;-83
2021/12/05 15:12:12;;;;;;;22.25;15.15;;;5.20;99.90;;;;;;5053628;28;20083;-84
2021/12/05 15:14:40;;;;;;;26.25;14.90;;;5.20;99.90;;;;;;5071375;28;20443;-82
2021/12/05 15:17:25;;;;;;;26.33;16.02;;;5.10;99.90;;;;;;5053304;28;20059;-83
2021/12/05 15:19:56;;;;;;;31.80;16.30;;;5.10;99.90;;;;;;5070842;28;20106;-82
2021/12/05 15:22:22;;;;;;;23.73;14.73;;;5.00;99.90;;;;;;5069604;28;20053;-83
2021/12/05 15:25:08;;;;;;;26.02;15.25;;;5.00;99.90;;;;;;5071328;28;20488;-82
2021/12/05 15:27:34;;;;;;;22.92;14.82;;;5.10;99.90;;;;;;5070363;28;20137;-82
2021/12/05 15:30:09;;;;;;;26.63;12.60;;;5.10;99.90;;;;;;5071266;28;20083;-83
2021/12/05 15:32:35;;;;;;;24.50;13.32;;;5.10;99.90;;;;;;5069963;28;20059;-82
2021/12/05 15:35:03;;;;;;;25.25;14.60;;;5.10;99.90;;;;;;5052946;28;20057;-82
2021/12/05 15:37:29;;;;;;;31.00;19.20;;;5.10;99.90;;;;;;5052904;28;20051;-83
2021/12/05 15:39:56;;;;;;;27.25;14.75;;;5.10;99.90;;;;;;5071211;28;20056;-82
2021/12/05 15:42:24;;;;;;;25.10;11.93;;;5.20;99.90;;;;;;5070603;28;20048;-83
2021/12/05 15:44:51;;;;;;;24.40;16.92;;;5.60;99.90;;;;;;5069861;28;20052;-82
2021/12/05 15:47:21;;;;;;;23.75;15.70;;;5.30;99.90;;;;;;5052057;28;20547;-83
2021/12/05 15:50:00;;;;;;;22.70;15.85;;;5.10;99.90;;;;;;5053392;28;20165;-82
2021/12/05 15:52:46;;;;;;;30.55;17.73;;;5.00;99.90;;;;;;5052655;28;20056;-81
2021/12/05 15:55:18;;;;;;;28.33;16.75;;;5.00;99.90;;;;;;5070325;28;20072;-82
2021/12/05 15:57:49;;;;;;;27.10;16.92;;;5.70;99.90;;;;;;5069480;28;20044;-81
2021/12/05 16:00:27;;;;;;;29.70;15.07;;;5.00;99.90;;;;;;5068548;28;20093;-83
2021/12/05 16:03:02;;;;;;;31.42;16.98;;;5.10;99.90;;;;;;5069770;28;20048;-82
2021/12/05 16:05:27;;;;;;;29.75;17.90;;;5.00;99.90;;;;;;5068929;28;20056;-82
2021/12/05 16:08:03;;;;;;;32.00;18.95;;;5.00;99.90;;;;;;5084810;28;20062;-82
2021/12/05 16:10:29;;;;;;;30.27;19.02;;;5.00;99.90;;;;;;5069014;28;20048;-83
2021/12/05 16:12:55;;;;;;;30.67;18.90;;;4.90;99.90;;;;;;5052128;28;20045;-83
2021/12/05 16:15:27;;;;;;;30.67;19.35;;;5.00;99.90;;;;;;5069783;28;20126;-85
2021/12/05 16:17:59;;;;;;;38.72;19.55;;;5.00;99.90;;;;;;5069291;28;20458;-85
2021/12/05 16:20:26;;;;;;;30.85;19.40;;;4.90;99.90;;;;;;5052211;28;20400;-85
2021/12/05 16:22:58;;;;;;;30.58;18.25;;;4.90;99.90;;;;;;5069169;28;20123;-85
2021/12/05 16:25:24;;;;;;;32.20;19.60;;;4.90;99.90;;;;;;5067989;28;20044;-84
2021/12/05 16:27:50;;;;;;;37.70;19.83;;;5.00;99.90;;;;;;5052482;28;20052;-85
2021/12/05 16:30:23;;;;;;;37.15;22.17;;;4.90;99.90;;;;;;5068254;28;20049;-84
2021/12/05 16:32:49;;;;;;;40.30;22.05;;;4.80;99.90;;;;;;5069215;28;20400;-84
2021/12/05 16:35:51;;;;;;;32.28;18.65;;;4.90;99.90;;;;;;5050760;28;20056;-85
2021/12/05 16:38:21;;;;;;;31.98;18.05;;;5.00;99.90;;;;;;4999990;28;20076;-84
2021/12/05 16:41:17;;;;;;;36.33;22.02;;;5.20;99.90;;;;;;5052225;28;20054;-85
2021/12/05 16:43:47;;;;;;;39.75;21.13;;;5.00;99.90;;;;;;5069639;28;20505;-84
2021/12/05 16:46:19;;;;;;;38.78;21.20;;;5.00;99.90;;;;;;5069922;28;20052;-83
2021/12/05 16:48:44;;;;;;;34.65;21.73;;;4.90;99.90;;;;;;5069293;28;20055;-84
2021/12/05 16:51:20;;;;;;;38.50;22.08;;;4.90;99.90;;;;;;5068994;28;20060;-84
2021/12/05 16:53:47;;;;;;;37.70;19.95;;;4.90;99.90;;;;;;5068588;28;20044;-83
2021/12/05 16:56:17;;;;;;;36.58;21.90;;;4.90;99.90;;;;;;5068394;28;20543;-83
2021/12/05 16:58:43;;;;;;;35.38;19.15;;;4.80;99.90;;;;;;5069262;28;20147;-83
2021/12/05 17:01:16;;;;;;;39.50;22.60;;;4.90;99.90;;;;;;5068067;28;20130;-83
2021/12/05 17:03:44;;;;;;;34.35;22.10;;;4.90;99.90;;;;;;5068887;28;20075;-84
2021/12/05 17:06:11;;;;;;;41.92;18.55;;;4.90;99.90;;;;;;5069432;28;20045;-84
2021/12/05 17:08:44;;;;;;;42.67;23.23;;;5.80;99.90;;;;;;5068204;28;20095;-83
2021/12/05 17:11:10;;;;;;;39.25;21.67;;;5.00;99.90;;;;;;5068501;28;20088;-83
2021/12/05 17:13:39;;;;;;;37.55;19.58;;;4.90;99.90;;;;;;5051153;28;20106;-84
2021/12/05 17:16:17;;;;;;;49.45;24.70;;;5.00;99.90;;;;;;5068418;28;20052;-84
2021/12/05 17:18:53;;;;;;;46.63;23.25;;;5.00;99.90;;;;;;5067449;28;20106;-84
2021/12/05 17:21:29;;;;;;;30.70;13.23;;;5.00;99.90;;;;;;5035913;28;20068;-85
2021/12/05 17:24:20;;;;;;;43.13;24.80;;;5.10;99.90;;;;;;5036208;28;20409;-83
2021/12/05 17:26:46;;;;;;;44.28;23.90;;;5.10;99.90;;;;;;5067811;28;20055;-85
2021/12/05 17:29:19;;;;;;;42.30;22.83;;;5.20;99.90;;;;;;5067359;28;20057;-84
2021/12/05 17:32:08;;;;;;;46.63;23.83;;;5.10;99.90;;;;;;5051498;28;20043;-84
2021/12/05 17:34:56;;;;;;;45.70;21.65;;;5.00;99.90;;;;;;5068169;28;20135;-84
2021/12/05 17:37:27;;;;;;;43.20;22.40;;;5.80;99.90;;;;;;5068174;28;20747;-84
2021/12/05 17:39:52;;;;;;;44.00;22.63;;;5.90;99.90;;;;;;5051238;28;20532;-84
2021/12/05 17:42:23;;;;;;;46.08;22.85;;;5.00;99.90;;;;;;5066812;28;20136;-84
2021/12/05 17:44:51;;;;;;;39.75;22.25;;;5.00;99.90;;;;;;5051088;28;20056;-84
2021/12/05 17:47:17;;;;;;;47.42;23.55;;;5.10;99.90;;;;;;5068599;28;20044;-84
2021/12/05 17:49:44;;;;;;;45.90;25.40;;;5.00;99.90;;;;;;5066795;28;20048;-83
2021/12/05 17:52:11;;;;;;;49.90;25.77;;;4.90;99.90;;;;;;5034366;28;20410;-84
2021/12/05 17:54:49;;;;;;;45.08;25.42;;;4.90;99.90;;;;;;5066301;28;20048;-84
2021/12/05 17:57:19;;;;;;;26.90;15.07;;;5.50;99.90;;;;;;5021042;28;20037;-85
2021/12/05 18:02:48;;;;;;;39.40;20.90;;;5.00;99.90;;;;;;5051900;28;20135;-83
2021/12/05 18:05:16;;;;;;;33.28;19.23;;;5.10;99.90;;;;;;5082538;28;20055;-83
2021/12/05 18:07:42;;;;;;;37.60;21.83;;;4.90;99.90;;;;;;5087609;28;20659;-84
2021/12/05 18:10:09;;;;;;;36.35;22.38;;;4.90;99.90;;;;;;5087176;28;20051;-83
2021/12/05 18:12:36;;;;;;;36.45;23.25;;;4.90;99.90;;;;;;5086550;28;20524;-84
2021/12/05 18:15:27;;;;;;;42.70;23.02;;;5.70;99.90;;;;;;5088719;28;20050;-83
2021/12/05 18:17:53;;;;;;;38.00;23.25;;;4.70;99.90;;;;;;5077611;28;20052;-84
2021/12/05 18:20:22;;;;;;;30.65;16.48;;;4.90;99.90;;;;;;5086703;28;20047;-83